Terminal Aerodrome Forecast
Issued by NWS

Home | Current Version | Previous Version | Text Only | Print | Product List | Glossary On
Versions: 1 2 3 4 5 6 7 8 9 10 11 12 13
436
FTUS45 KTFX 121123
TAFHVR
TAF
KHVR 121123Z 1212/1312 23012KT P6SM SKC
     FM121400 23014G20KT P6SM SKC
     FM121800 24019G28KT P6SM SCT200
      TEMPO 1219/1222 24033G45KT
     FM130200 24016KT P6SM SKC=

USA.gov is the U.S. government's official web portal to all federal, state and local government web resources and services.